createdAt,value
2017-08-11T00:00:51.565Z,2.5
2017-08-11T00:01:54.015Z,2.6
2017-08-11T00:02:56.809Z,2.6
2017-08-11T00:03:59.613Z,2.5
2017-08-11T00:05:02.401Z,2.5
2017-08-11T00:06:04.857Z,2.6
2017-08-11T00:07:07.318Z,2.6
2017-08-11T00:08:09.764Z,2.6
2017-08-11T00:09:12.894Z,2.5
2017-08-11T00:10:15.681Z,2.5
2017-08-11T00:11:18.473Z,2.6
2017-08-11T00:12:21.270Z,2.6
2017-08-11T00:13:23.717Z,2.5
2017-08-11T00:14:26.198Z,2.6
2017-08-11T00:15:28.645Z,2.5
2017-08-11T00:16:31.099Z,2.6
2017-08-11T00:17:33.924Z,2.6
2017-08-11T00:18:36.713Z,2.4
2017-08-11T00:19:39.507Z,2.6
2017-08-11T00:20:42.294Z,2.5
2017-08-11T00:21:44.744Z,2.5
2017-08-11T00:22:47.207Z,2.6
2017-08-11T00:23:49.992Z,2.6
2017-08-11T00:24:52.777Z,2.6
2017-08-11T00:25:55.241Z,2.5
2017-08-11T00:26:57.703Z,2.5
2017-08-11T00:28:00.842Z,2.6
2017-08-11T00:29:03.964Z,2.6
2017-08-11T00:30:06.822Z,2.6
2017-08-11T00:31:09.615Z,2.5
2017-08-11T00:32:12.084Z,2.6
2017-08-11T00:33:14.558Z,2.6
2017-08-11T00:34:17.357Z,2.6
2017-08-11T00:35:20.153Z,2.6
2017-08-11T00:36:22.612Z,2.6
2017-08-11T00:37:25.404Z,2.6
2017-08-11T00:38:27.852Z,2.5
2017-08-11T00:39:30.314Z,2.5
2017-08-11T00:40:33.100Z,2.5
2017-08-11T00:41:35.554Z,2.6
2017-08-11T00:42:38.007Z,2.6
2017-08-11T00:43:40.451Z,2.5
2017-08-11T00:44:42.916Z,2.6
2017-08-11T00:45:45.365Z,2.5
2017-08-11T00:46:47.821Z,2.6
2017-08-11T00:47:50.615Z,2.5
2017-08-11T00:48:53.398Z,2.5
2017-08-11T00:49:56.197Z,2.5
2017-08-11T00:50:58.977Z,2.5
2017-08-11T00:52:01.435Z,2.6
2017-08-11T00:53:03.897Z,2.5
2017-08-11T00:54:06.353Z,2.5
2017-08-11T00:55:08.806Z,2.5
2017-08-11T00:56:11.252Z,2.5
2017-08-11T00:57:13.714Z,2.5
2017-08-11T00:58:16.211Z,2.5
2017-08-11T00:59:18.999Z,2.5
2017-08-11T01:00:21.438Z,2.6
2017-08-11T01:01:24.579Z,2.5
2017-08-11T01:02:27.046Z,2.5
2017-08-11T01:03:29.835Z,2.6
2017-08-11T01:04:32.618Z,2.5
2017-08-11T01:05:35.061Z,2.6
2017-08-11T01:06:37.516Z,2.6
2017-08-11T01:07:40.320Z,2.5
2017-08-11T01:08:42.766Z,2.5
2017-08-11T01:09:45.236Z,2.5
2017-08-11T01:10:48.039Z,2.5
2017-08-11T01:11:50.524Z,2.5
2017-08-11T01:12:53.328Z,2.5
2017-08-11T01:13:56.134Z,2.6
2017-08-11T01:14:58.946Z,2.5
2017-08-11T01:16:02.072Z,2.6
2017-08-11T01:17:04.893Z,2.5
2017-08-11T01:18:07.342Z,2.6
2017-08-11T01:19:09.784Z,2.6
2017-08-11T01:20:12.582Z,2.5
2017-08-11T01:21:15.042Z,2.6
2017-08-11T01:22:17.505Z,2.5
2017-08-11T01:23:20.653Z,2.6
2017-08-11T01:24:23.100Z,2.6
2017-08-11T01:25:25.584Z,2.5
2017-08-11T01:26:28.049Z,2.5
2017-08-11T01:27:30.501Z,2.6
2017-08-11T01:28:33.295Z,2.6
2017-08-11T01:29:35.753Z,2.6
2017-08-11T01:30:38.194Z,2.5
2017-08-11T01:31:41.343Z,2.5
2017-08-11T01:32:43.794Z,2.6
2017-08-11T01:33:46.239Z,2.5
2017-08-11T01:34:49.711Z,2.5
2017-08-11T01:35:52.179Z,2.5
2017-08-11T01:36:55.302Z,2.5
2017-08-11T01:37:58.440Z,2.5
2017-08-11T01:39:01.571Z,2.5
2017-08-11T01:40:04.368Z,2.5
2017-08-11T01:41:07.535Z,2.5
2017-08-11T01:42:09.988Z,2.5
2017-08-11T01:43:12.447Z,2.6
2017-08-11T01:44:15.239Z,2.5
2017-08-11T01:45:18.036Z,2.5
2017-08-11T01:46:20.493Z,2.5
2017-08-11T01:47:22.940Z,2.6
2017-08-11T01:48:25.742Z,2.5
2017-08-11T01:49:28.530Z,2.6
2017-08-11T01:50:30.985Z,2.5
2017-08-11T01:51:33.764Z,2.6
2017-08-11T01:52:36.578Z,2.5
2017-08-11T01:53:39.388Z,2.6
2017-08-11T01:54:41.842Z,2.6
2017-08-11T01:55:44.634Z,2.6
2017-08-11T01:56:47.085Z,2.6
2017-08-11T01:57:49.540Z,2.5
2017-08-11T01:58:52.002Z,2.6
2017-08-11T01:59:54.793Z,2.5
2017-08-11T02:00:57.252Z,2.5
2017-08-11T02:02:00.040Z,2.5
2017-08-11T02:03:02.502Z,2.5
2017-08-11T02:04:05.279Z,2.6
2017-08-11T02:05:08.073Z,2.6
2017-08-11T02:06:10.513Z,2.6
2017-08-11T02:07:12.970Z,2.5
2017-08-11T02:08:15.434Z,2.5
2017-08-11T02:09:17.887Z,2.5
2017-08-11T02:10:20.341Z,2.5
2017-08-11T02:11:23.133Z,2.5
2017-08-11T02:12:26.280Z,2.5
2017-08-11T02:13:28.737Z,2.6
2017-08-11T02:14:31.522Z,2.5
2017-08-11T02:15:33.982Z,2.5
2017-08-11T02:16:36.433Z,2.6
2017-08-11T02:17:38.881Z,2.5
2017-08-11T02:18:41.330Z,2.5
2017-08-11T02:19:43.778Z,2.5
2017-08-11T02:20:46.228Z,2.6
2017-08-11T02:21:49.030Z,2.5
2017-08-11T02:22:51.481Z,2.5
2017-08-11T02:23:54.288Z,2.5
2017-08-11T02:24:57.414Z,2.5
2017-08-11T02:25:59.863Z,2.5
2017-08-11T02:27:03.001Z,2.5
2017-08-11T02:28:05.806Z,2.5
2017-08-11T02:29:08.579Z,2.6
2017-08-11T02:30:11.049Z,2.6
2017-08-11T02:31:14.168Z,2.5
2017-08-11T02:32:16.969Z,2.5
2017-08-11T02:33:19.431Z,2.6
2017-08-11T02:34:22.222Z,2.5
2017-08-11T02:35:24.682Z,2.5
2017-08-11T02:36:27.134Z,2.6
2017-08-11T02:37:29.584Z,2.5
2017-08-11T02:38:32.740Z,2.6
2017-08-11T02:39:35.188Z,2.5
2017-08-11T02:40:37.980Z,2.5
2017-08-11T02:41:40.439Z,2.5
2017-08-11T02:42:42.904Z,2.5
2017-08-11T02:43:45.690Z,2.5
2017-08-11T02:44:48.154Z,2.5
2017-08-11T02:45:50.962Z,2.5
2017-08-11T02:46:54.097Z,2.6
2017-08-11T02:47:57.248Z,2.6
2017-08-11T02:48:59.720Z,2.6
2017-08-11T02:50:02.870Z,2.5
2017-08-11T02:51:05.685Z,2.6
2017-08-11T02:52:08.146Z,2.5
2017-08-11T02:53:10.936Z,2.5
2017-08-11T02:54:13.734Z,2.6
2017-08-11T02:55:16.211Z,2.5
2017-08-11T02:56:19.001Z,2.5
2017-08-11T02:57:21.441Z,2.5
2017-08-11T02:58:23.904Z,2.6
2017-08-11T02:59:26.706Z,2.5
2017-08-11T03:00:29.159Z,2.5
2017-08-11T03:01:31.606Z,2.6
2017-08-11T03:02:34.057Z,2.6
2017-08-11T03:03:36.862Z,2.5
2017-08-11T03:04:39.659Z,2.5
2017-08-11T03:05:42.461Z,2.5
2017-08-11T03:06:44.902Z,2.6
2017-08-11T03:07:47.364Z,2.5
2017-08-11T03:08:50.155Z,2.6
2017-08-11T03:09:52.942Z,2.5
2017-08-11T03:10:55.397Z,2.6
2017-08-11T03:11:57.844Z,2.5
2017-08-11T03:13:00.629Z,2.6
2017-08-11T03:14:03.438Z,2.6
2017-08-11T03:15:06.584Z,2.6
2017-08-11T03:16:09.409Z,2.6
2017-08-11T03:17:11.885Z,2.6
2017-08-11T03:18:14.337Z,2.6
2017-08-11T03:19:17.112Z,2.6
2017-08-11T03:20:19.907Z,2.6
2017-08-11T03:21:22.359Z,2.6
2017-08-11T03:22:24.805Z,2.5
2017-08-11T03:23:27.594Z,2.6
2017-08-11T03:24:30.050Z,2.6
2017-08-11T03:25:32.867Z,2.6
2017-08-11T03:26:35.338Z,2.6
2017-08-11T03:27:38.463Z,2.6
2017-08-11T03:28:41.250Z,2.5
2017-08-11T03:29:43.723Z,2.5
2017-08-11T03:30:46.847Z,2.5
2017-08-11T03:31:49.302Z,2.5
2017-08-11T03:32:51.758Z,2.5
2017-08-11T03:33:54.558Z,2.5
2017-08-11T03:34:56.998Z,2.5
2017-08-11T03:35:59.444Z,2.5
2017-08-11T03:37:02.227Z,2.5
2017-08-11T03:38:05.051Z,2.5
2017-08-11T03:39:08.177Z,2.5
2017-08-11T03:40:10.978Z,2.5
2017-08-11T03:41:13.778Z,2.6
2017-08-11T03:42:16.631Z,2.6
2017-08-11T03:43:19.075Z,2.5
2017-08-11T03:44:21.856Z,2.6
2017-08-11T03:45:24.661Z,2.6
2017-08-11T03:46:27.801Z,2.6
2017-08-11T03:47:30.243Z,2.6
2017-08-11T03:48:33.042Z,2.5
2017-08-11T03:49:35.511Z,2.6
2017-08-11T03:50:38.311Z,2.6
2017-08-11T03:51:40.769Z,2.6
2017-08-11T03:52:43.211Z,2.5
2017-08-11T03:53:45.657Z,2.6
2017-08-11T03:54:48.514Z,2.5
2017-08-11T03:55:51.301Z,2.6
2017-08-11T03:56:53.768Z,2.5
2017-08-11T03:57:56.565Z,2.5
2017-08-11T03:58:59.355Z,2.6
2017-08-11T04:00:02.140Z,2.5
2017-08-11T04:01:04.942Z,2.5
2017-08-11T04:02:07.388Z,2.6
2017-08-11T04:03:09.851Z,2.5
2017-08-11T04:04:12.312Z,2.6
2017-08-11T04:05:15.105Z,2.6
2017-08-11T04:06:17.549Z,2.5
2017-08-11T04:07:20.004Z,2.5
2017-08-11T04:08:22.794Z,2.5
2017-08-11T04:09:25.587Z,2.6
2017-08-11T04:10:28.374Z,2.5
2017-08-11T04:11:31.176Z,2.5
2017-08-11T04:12:33.958Z,2.5
2017-08-11T04:13:36.420Z,2.5
2017-08-11T04:14:38.867Z,2.5
2017-08-11T04:15:41.313Z,2.5
2017-08-11T04:16:44.091Z,2.5
2017-08-11T04:17:46.542Z,2.5
2017-08-11T04:18:49.014Z,2.4
2017-08-11T04:19:51.460Z,2.5
2017-08-11T04:20:54.242Z,2.6
2017-08-11T04:21:56.705Z,2.5
2017-08-11T04:22:59.161Z,2.5
2017-08-11T04:24:01.950Z,2.5
2017-08-11T04:25:05.088Z,2.6
2017-08-11T04:26:07.886Z,2.5
2017-08-11T04:27:10.672Z,2.5
2017-08-11T04:28:13.135Z,2.6
2017-08-11T04:29:15.623Z,2.5
2017-08-11T04:30:18.414Z,2.5
2017-08-11T04:31:20.879Z,2.5
2017-08-11T04:32:23.369Z,2.6
2017-08-11T04:33:25.835Z,2.6
2017-08-11T04:34:28.286Z,2.5
2017-08-11T04:35:30.741Z,2.5
2017-08-11T04:36:33.545Z,2.5
2017-08-11T04:37:35.993Z,2.5
2017-08-11T04:38:38.440Z,2.5
2017-08-11T04:39:40.895Z,2.5
2017-08-11T04:40:43.709Z,2.4
2017-08-11T04:41:46.170Z,2.5
2017-08-11T04:42:48.625Z,2.5
2017-08-11T04:43:51.105Z,2.5
2017-08-11T04:44:53.883Z,2.6
2017-08-11T04:45:56.702Z,2.5
2017-08-11T04:46:59.196Z,2.5
2017-08-11T04:48:01.646Z,2.5
2017-08-11T04:49:04.107Z,2.5
2017-08-11T04:50:06.908Z,2.6
2017-08-11T04:51:09.358Z,2.5
2017-08-11T04:52:11.830Z,2.5
2017-08-11T04:53:14.281Z,2.5
2017-08-11T04:54:17.087Z,2.5
2017-08-11T04:55:19.890Z,2.5
2017-08-11T04:56:22.704Z,2.5
2017-08-11T04:57:25.177Z,2.4
2017-08-11T04:58:27.985Z,2.6
2017-08-11T04:59:30.776Z,2.6
2017-08-11T05:00:33.233Z,2.5
2017-08-11T05:01:36.368Z,2.5
2017-08-11T05:02:39.200Z,2.5
2017-08-11T05:03:41.650Z,2.5
2017-08-11T05:04:44.103Z,2.5
2017-08-11T05:05:46.584Z,2.5
2017-08-11T05:06:49.033Z,2.6
2017-08-11T05:07:51.823Z,2.5
2017-08-11T05:08:54.624Z,2.5
2017-08-11T05:09:57.422Z,2.5
2017-08-11T05:11:00.196Z,2.5
2017-08-11T05:12:03.378Z,2.6
2017-08-11T05:13:06.171Z,2.5
2017-08-11T05:14:08.624Z,2.5
2017-08-11T05:15:11.122Z,2.5
2017-08-11T05:16:13.902Z,2.5
2017-08-11T05:17:16.708Z,2.4
2017-08-11T05:18:19.504Z,2.5
2017-08-11T05:19:21.957Z,2.5
2017-08-11T05:20:24.434Z,2.5
2017-08-11T05:21:26.885Z,2.4
2017-08-11T05:22:29.332Z,2.5
2017-08-11T05:23:32.134Z,2.5
2017-08-11T05:24:35.279Z,2.5
2017-08-11T05:25:38.074Z,2.5
2017-08-11T05:26:40.511Z,2.5
2017-08-11T05:27:43.313Z,2.5
2017-08-11T05:28:46.131Z,2.5
2017-08-11T05:29:48.928Z,2.4
2017-08-11T05:30:52.389Z,2.4
2017-08-11T05:31:54.847Z,2.5
2017-08-11T05:32:57.344Z,2.5
2017-08-11T05:34:00.137Z,2.5
2017-08-11T05:35:02.585Z,2.6
2017-08-11T05:36:05.062Z,2.4
2017-08-11T05:37:07.499Z,2.5
2017-08-11T05:38:10.304Z,2.4
2017-08-11T05:39:13.437Z,2.5
2017-08-11T05:40:16.232Z,2.4
2017-08-11T05:41:19.030Z,2.5
2017-08-11T05:42:21.833Z,2.6
2017-08-11T05:43:24.967Z,2.5
2017-08-11T05:44:27.413Z,2.4
2017-08-11T05:45:29.866Z,2.6
2017-08-11T05:46:33.354Z,2.5
2017-08-11T05:47:36.143Z,2.5
2017-08-11T05:48:39.271Z,2.5
2017-08-11T05:49:42.063Z,2.5
2017-08-11T05:50:44.516Z,2.6
2017-08-11T05:51:47.332Z,2.5
2017-08-11T05:52:50.124Z,2.5
2017-08-11T05:53:52.920Z,2.5
2017-08-11T05:54:55.373Z,2.6
2017-08-11T05:55:57.832Z,2.6
2017-08-11T05:57:00.290Z,2.6
2017-08-11T05:58:03.100Z,2.6
2017-08-11T05:59:05.883Z,2.5
2017-08-11T06:00:08.340Z,2.6
2017-08-11T06:01:11.142Z,2.6
2017-08-11T06:02:13.595Z,2.5
2017-08-11T06:03:16.383Z,2.6
2017-08-11T06:04:19.182Z,2.6
2017-08-11T06:05:21.649Z,2.5
2017-08-11T06:06:24.464Z,2.6
2017-08-11T06:07:27.256Z,2.3
2017-08-11T06:08:29.693Z,2.6
2017-08-11T06:09:32.146Z,2.5
2017-08-11T06:10:34.634Z,2.5
2017-08-11T06:11:37.085Z,2.5
2017-08-11T06:12:39.553Z,2.5
2017-08-11T06:13:42.341Z,2.5
2017-08-11T06:14:45.813Z,2.5
2017-08-11T06:15:48.271Z,2.5
2017-08-11T06:16:50.725Z,2.4
2017-08-11T06:17:53.514Z,2.5
2017-08-11T06:18:55.974Z,2.5
2017-08-11T06:19:59.095Z,2.5
2017-08-11T06:21:02.232Z,2.5
2017-08-11T06:22:04.693Z,2.5
2017-08-11T06:23:07.478Z,2.5
2017-08-11T06:24:10.613Z,2.5
2017-08-11T06:25:13.063Z,2.5
2017-08-11T06:26:16.195Z,2.5
2017-08-11T06:27:18.662Z,2.5
2017-08-11T06:28:21.441Z,2.5
2017-08-11T06:29:23.905Z,2.5
2017-08-11T06:30:26.684Z,2.5
2017-08-11T06:31:29.140Z,2.6
2017-08-11T06:32:31.925Z,2.5
2017-08-11T06:33:34.718Z,2.5
2017-08-11T06:34:37.163Z,2.5
2017-08-11T06:35:39.616Z,2.3
2017-08-11T06:36:42.762Z,2.5
2017-08-11T06:37:45.214Z,2.5
2017-08-11T06:38:47.667Z,2.4
2017-08-11T06:39:50.451Z,2.5
2017-08-11T06:40:53.248Z,2.5
2017-08-11T06:41:56.391Z,2.5
2017-08-11T06:42:59.524Z,2.6
2017-08-11T06:44:02.636Z,2.5
2017-08-11T06:45:05.440Z,2.5
2017-08-11T06:46:07.892Z,2.5
2017-08-11T06:47:10.697Z,2.5
2017-08-11T06:48:13.146Z,2.5
2017-08-11T06:49:15.934Z,2.5
2017-08-11T06:50:18.724Z,2.4
2017-08-11T06:51:21.543Z,2.5
2017-08-11T06:52:24.338Z,2.5
2017-08-11T06:53:27.130Z,2.5
2017-08-11T06:54:29.579Z,2.4
2017-08-11T06:55:32.043Z,2.6
2017-08-11T06:56:34.861Z,2.5
2017-08-11T06:57:37.325Z,2.6
2017-08-11T06:58:39.768Z,2.6
2017-08-11T06:59:42.242Z,2.5
2017-08-11T07:00:45.037Z,2.6
2017-08-11T07:01:48.170Z,2.5
2017-08-11T07:02:50.962Z,2.6
2017-08-11T07:03:53.412Z,2.5
2017-08-11T07:04:55.852Z,2.6
2017-08-11T07:05:58.663Z,2.6
2017-08-11T07:07:01.454Z,2.6
2017-08-11T07:08:04.919Z,2.6
2017-08-11T07:09:08.049Z,2.6
2017-08-11T07:10:10.859Z,2.5
2017-08-11T07:11:13.304Z,2.6
2017-08-11T07:12:15.768Z,2.5
2017-08-11T07:13:18.561Z,2.3
2017-08-11T07:14:21.028Z,2.5
2017-08-11T07:15:23.463Z,2.6
2017-08-11T07:16:25.934Z,2.6
2017-08-11T07:17:28.752Z,2.6
2017-08-11T07:18:31.535Z,2.6
2017-08-11T07:19:34.008Z,2.6
2017-08-11T07:20:36.456Z,2.5
2017-08-11T07:21:39.265Z,2.5
2017-08-11T07:22:42.057Z,2.6
2017-08-11T07:23:44.513Z,2.5
2017-08-11T07:24:47.290Z,2.6
2017-08-11T07:25:50.799Z,2.6
2017-08-11T07:26:53.262Z,2.5
2017-08-11T07:27:55.715Z,2.5
2017-08-11T07:28:58.178Z,2.5
2017-08-11T07:30:00.622Z,2.6
2017-08-11T07:31:03.063Z,2.6
2017-08-11T07:32:05.867Z,2.5
2017-08-11T07:33:08.356Z,2.5
2017-08-11T07:34:10.798Z,2.6
2017-08-11T07:35:13.247Z,2.5
2017-08-11T07:36:16.038Z,2.6
2017-08-11T07:37:19.178Z,2.5
2017-08-11T07:38:21.974Z,2.5
2017-08-11T07:39:24.414Z,2.5
2017-08-11T07:40:26.870Z,2.5
2017-08-11T07:41:29.672Z,2.5
2017-08-11T07:42:32.467Z,2.5
2017-08-11T07:43:34.923Z,2.3
2017-08-11T07:44:37.373Z,2.5
2017-08-11T07:45:40.172Z,2.5
2017-08-11T07:46:42.977Z,2.5
2017-08-11T07:47:45.770Z,2.4
2017-08-11T07:48:48.575Z,2.4
2017-08-11T07:49:51.349Z,2.5
2017-08-11T07:50:54.158Z,2.5
2017-08-11T07:51:56.606Z,2.5
2017-08-11T07:52:59.063Z,2.4
2017-08-11T07:54:01.514Z,2.5
2017-08-11T07:55:03.967Z,2.5
2017-08-11T07:56:06.413Z,2.5
2017-08-11T07:57:08.868Z,2.5
2017-08-11T07:58:11.654Z,2.5
2017-08-11T07:59:14.797Z,2.5
2017-08-11T08:00:17.254Z,2.5
2017-08-11T08:01:20.042Z,2.5
2017-08-11T08:02:22.495Z,2.5
2017-08-11T08:03:25.625Z,2.4
2017-08-11T08:04:28.065Z,2.4
2017-08-11T08:05:30.565Z,2.5
2017-08-11T08:06:33.593Z,2.5
2017-08-11T08:07:36.340Z,2.5
2017-08-11T08:08:39.384Z,2.6
2017-08-11T08:09:42.461Z,2.5
2017-08-11T08:10:45.824Z,2.5
2017-08-11T08:11:48.897Z,2.5
2017-08-11T08:12:51.612Z,2.4
2017-08-11T08:13:54.340Z,2.5
2017-08-11T08:14:57.057Z,2.6
2017-08-11T08:15:59.795Z,2.5
2017-08-11T08:17:02.836Z,2.5
2017-08-11T08:18:05.892Z,2.5
2017-08-11T08:19:08.598Z,2.5
2017-08-11T08:20:11.049Z,2.3
2017-08-11T08:21:13.517Z,2.5
2017-08-11T08:22:17.095Z,2.5
2017-08-11T08:23:19.911Z,2.3
2017-08-11T08:24:22.369Z,2.5
2017-08-11T08:25:24.812Z,2.5
2017-08-11T08:26:27.606Z,2.5
2017-08-11T08:27:30.390Z,2.5
2017-08-11T08:28:33.525Z,2.5
2017-08-11T08:29:36.352Z,2.5
2017-08-11T08:30:38.797Z,2.5
2017-08-11T08:31:41.259Z,2.6
2017-08-11T08:32:43.715Z,2.4
2017-08-11T08:33:46.513Z,2.5
2017-08-11T08:34:48.976Z,2.5
2017-08-11T08:35:52.103Z,2.6
2017-08-11T08:36:54.879Z,2.5
2017-08-11T08:37:57.351Z,2.5
2017-08-11T08:38:59.802Z,2.4
2017-08-11T08:40:02.605Z,2.4
2017-08-11T08:41:05.421Z,2.4
2017-08-11T08:42:07.871Z,2.5
2017-08-11T08:43:10.331Z,2.5
2017-08-11T08:44:13.130Z,2.5
2017-08-11T08:45:15.929Z,2.6
2017-08-11T08:46:18.723Z,2.5
2017-08-11T08:47:21.512Z,2.5
2017-08-11T08:48:23.980Z,2.5
2017-08-11T08:49:26.771Z,2.5
2017-08-11T08:50:29.584Z,2.6
2017-08-11T08:51:32.038Z,2.5
2017-08-11T08:52:35.210Z,2.6
2017-08-11T08:53:38.003Z,2.5
2017-08-11T08:54:40.456Z,2.6
2017-08-11T08:55:43.270Z,2.6
2017-08-11T08:56:45.723Z,2.5
2017-08-11T08:57:48.512Z,2.5
2017-08-11T08:58:51.001Z,2.6
2017-08-11T08:59:54.470Z,2.6
2017-08-11T09:00:56.925Z,2.5
2017-08-11T09:01:59.753Z,2.5
2017-08-11T09:03:03.203Z,2.6
2017-08-11T09:04:05.666Z,2.4
2017-08-11T09:05:08.450Z,2.5
2017-08-11T09:06:10.911Z,2.5
2017-08-11T09:07:13.707Z,2.5
2017-08-11T09:08:16.159Z,2.3
2017-08-11T09:09:19.356Z,2.5
2017-08-11T09:10:21.817Z,2.5
2017-08-11T09:11:24.644Z,2.5
2017-08-11T09:12:27.423Z,2.5
2017-08-11T09:13:29.897Z,2.5
2017-08-11T09:14:32.681Z,2.5
2017-08-11T09:15:35.144Z,2.6
2017-08-11T09:16:38.278Z,2.5
2017-08-11T09:17:40.803Z,2.5
2017-08-11T09:18:43.602Z,2.5
2017-08-11T09:19:46.393Z,2.5
2017-08-11T09:20:48.841Z,2.5
2017-08-11T09:21:51.637Z,2.6
2017-08-11T09:22:54.107Z,2.5
2017-08-11T09:23:56.570Z,2.4
2017-08-11T09:24:59.375Z,2.6
2017-08-11T09:26:02.186Z,2.5
2017-08-11T09:27:04.971Z,2.5
2017-08-11T09:28:07.430Z,2.6
2017-08-11T09:29:09.883Z,2.6
2017-08-11T09:30:12.337Z,2.6
2017-08-11T09:31:15.471Z,2.6
2017-08-11T09:32:17.927Z,2.4
2017-08-11T09:33:20.377Z,2.6
2017-08-11T09:34:23.209Z,2.6
2017-08-11T09:35:26.077Z,2.6
2017-08-11T09:36:28.872Z,2.7
2017-08-11T09:37:31.655Z,2.6
2017-08-11T09:38:34.495Z,2.7
2017-08-11T09:39:37.286Z,2.7
2017-08-11T09:40:39.739Z,2.7
2017-08-11T09:41:42.195Z,2.7
2017-08-11T09:42:44.643Z,2.6
2017-08-11T09:43:47.082Z,2.7
2017-08-11T09:44:49.527Z,2.5
2017-08-11T09:45:52.082Z,2.6
2017-08-11T09:46:54.541Z,2.7
2017-08-11T09:47:57.320Z,2.6
2017-08-11T09:48:59.786Z,2.7
2017-08-11T09:50:02.963Z,2.6
2017-08-11T09:51:05.418Z,2.7
2017-08-11T09:52:08.222Z,2.7
2017-08-11T09:53:11.007Z,2.7
2017-08-11T09:54:13.809Z,2.7
2017-08-11T09:55:16.611Z,2.7
2017-08-11T09:56:19.069Z,2.7
2017-08-11T09:57:21.866Z,2.7
2017-08-11T09:58:24.665Z,2.6
2017-08-11T09:59:27.828Z,2.7
2017-08-11T10:00:30.331Z,2.7
2017-08-11T10:01:33.132Z,2.7
2017-08-11T10:02:35.577Z,2.7
2017-08-11T10:03:38.054Z,2.7
2017-08-11T10:04:41.198Z,2.4
2017-08-11T10:05:43.665Z,2.7
2017-08-11T10:06:46.830Z,2.7
2017-08-11T10:07:49.277Z,2.7
2017-08-11T10:08:52.069Z,2.7
2017-08-11T10:09:55.555Z,2.7
2017-08-11T10:10:58.681Z,2.7
2017-08-11T10:12:01.136Z,2.7
2017-08-11T10:13:03.593Z,2.7
2017-08-11T10:14:06.059Z,2.7
2017-08-11T10:15:08.861Z,2.7
2017-08-11T10:16:11.306Z,2.7
2017-08-11T10:17:14.127Z,2.7
2017-08-11T10:18:16.582Z,2.7
2017-08-11T10:19:19.380Z,2.8
2017-08-11T10:20:22.190Z,2.8
2017-08-11T10:21:24.983Z,2.8
2017-08-11T10:22:27.774Z,2.8
2017-08-11T10:23:30.245Z,2.8
2017-08-11T10:24:32.704Z,2.8
2017-08-11T10:25:35.168Z,2.8
2017-08-11T10:26:37.966Z,2.8
2017-08-11T10:27:40.417Z,2.7
2017-08-11T10:28:42.888Z,2.6
2017-08-11T10:29:45.359Z,2.7
2017-08-11T10:30:48.149Z,2.7
2017-08-11T10:31:50.602Z,2.7
2017-08-11T10:32:53.065Z,2.6
2017-08-11T10:33:55.528Z,2.7
2017-08-11T10:34:57.990Z,2.7
2017-08-11T10:36:00.770Z,2.6
2017-08-11T10:37:03.231Z,2.6
2017-08-11T10:38:05.695Z,2.7
2017-08-11T10:39:08.482Z,2.7
2017-08-11T10:40:11.276Z,2.7
2017-08-11T10:41:13.737Z,2.7
2017-08-11T10:42:17.205Z,2.7
2017-08-11T10:43:19.672Z,2.8
2017-08-11T10:44:22.130Z,2.8
2017-08-11T10:45:24.589Z,2.8
2017-08-11T10:46:27.050Z,2.8
2017-08-11T10:47:29.512Z,2.8
2017-08-11T10:48:31.968Z,2.8
2017-08-11T10:49:34.429Z,2.9
2017-08-11T10:50:36.891Z,2.9
2017-08-11T10:51:39.689Z,2.9
2017-08-11T10:52:42.135Z,2.9
2017-08-11T10:53:44.929Z,2.9
2017-08-11T10:54:47.736Z,2.9
2017-08-11T10:55:50.191Z,2.9
2017-08-11T10:56:52.991Z,2.9
2017-08-11T10:57:55.786Z,3
2017-08-11T10:58:58.575Z,3
2017-08-11T11:00:01.036Z,3
2017-08-11T11:01:03.528Z,3
2017-08-11T11:02:06.308Z,3.1
2017-08-11T11:03:08.777Z,3
2017-08-11T11:04:11.231Z,3.1
2017-08-11T11:05:13.701Z,3
2017-08-11T11:06:16.150Z,3.1
2017-08-11T11:07:19.280Z,3.1
2017-08-11T11:08:21.727Z,3.1
2017-08-11T11:09:24.200Z,3.2
2017-08-11T11:10:26.656Z,3.1
2017-08-11T11:11:29.448Z,3.1
2017-08-11T11:12:31.900Z,3.2
2017-08-11T11:13:34.355Z,3.3
2017-08-11T11:14:36.816Z,3.2
2017-08-11T11:15:39.610Z,3.3
2017-08-11T11:16:42.773Z,3.3
2017-08-11T11:17:45.225Z,3.2
2017-08-11T11:18:48.366Z,3.2
2017-08-11T11:19:51.150Z,3.1
2017-08-11T11:20:53.606Z,3.2
2017-08-11T11:21:56.062Z,3.2
2017-08-11T11:22:58.509Z,3.2
2017-08-11T11:24:01.622Z,3.3
2017-08-11T11:25:04.443Z,3.3
2017-08-11T11:26:06.894Z,3.2
2017-08-11T11:27:09.349Z,3.3
2017-08-11T11:28:11.826Z,3.2
2017-08-11T11:29:14.624Z,3.2
2017-08-11T11:30:17.072Z,3.2
2017-08-11T11:31:19.533Z,3.3
2017-08-11T11:32:22.334Z,3.3
2017-08-11T11:33:24.790Z,3.3
2017-08-11T11:34:27.251Z,3.2
2017-08-11T11:35:29.694Z,3.3
2017-08-11T11:36:32.497Z,3.3
2017-08-11T11:37:34.953Z,3.3
2017-08-11T11:38:37.429Z,3.2
2017-08-11T11:39:39.876Z,3.3
2017-08-11T11:40:42.340Z,3.3
2017-08-11T11:41:44.797Z,3.2
2017-08-11T11:42:47.257Z,3.3
2017-08-11T11:43:51.115Z,3.3
2017-08-11T11:44:55.320Z,3.3
2017-08-11T11:45:57.741Z,3.3
2017-08-11T11:47:00.167Z,3.3
2017-08-11T11:48:02.669Z,3.3
2017-08-11T11:49:05.535Z,3.3
2017-08-11T11:50:08.065Z,3.3
2017-08-11T11:51:10.582Z,3.3
2017-08-11T11:52:13.454Z,2.8
2017-08-11T11:53:15.999Z,2.5
2017-08-11T11:54:18.609Z,2.6
2017-08-11T11:55:21.456Z,2.5
2017-08-11T11:56:23.976Z,2.5
2017-08-11T11:57:26.818Z,2.5
2017-08-11T11:58:29.329Z,2.5
2017-08-11T11:59:32.185Z,2.5
2017-08-11T12:00:35.029Z,2.5
2017-08-11T12:01:37.876Z,2.5
2017-08-11T12:02:41.103Z,2.5
2017-08-11T12:03:43.639Z,2.5
2017-08-11T12:04:46.480Z,2.5
2017-08-11T12:05:49.329Z,2.5
2017-08-11T12:06:52.187Z,2.5
2017-08-11T12:07:55.061Z,2.5
2017-08-11T12:08:57.912Z,2.5
2017-08-11T12:10:00.755Z,2.5
2017-08-11T12:11:03.618Z,2.4
2017-08-11T12:12:06.139Z,2.4
2017-08-11T12:13:08.637Z,2.4
2017-08-11T12:14:12.183Z,2.5
2017-08-11T12:15:14.715Z,2.4
2017-08-11T12:16:17.226Z,2.4
2017-08-11T12:17:20.469Z,2.5
2017-08-11T12:18:23.327Z,2.5
2017-08-11T12:19:25.851Z,2.4
2017-08-11T12:20:28.408Z,2.4
2017-08-11T12:21:30.911Z,2.4
2017-08-11T12:22:33.568Z,2.4
2017-08-11T12:23:36.444Z,2.4
2017-08-11T12:24:39.312Z,2.5
2017-08-11T12:25:42.183Z,2.5
2017-08-11T12:26:45.050Z,2.5
2017-08-11T12:27:47.591Z,2.5
2017-08-11T12:28:50.442Z,2.4
2017-08-11T12:29:52.959Z,2.4
2017-08-11T12:30:55.497Z,2.4
2017-08-11T12:31:58.049Z,2.4
2017-08-11T12:33:00.900Z,2.4
2017-08-11T12:34:03.427Z,2.5
2017-08-11T12:35:06.276Z,2.5
2017-08-11T12:36:08.696Z,2.4
2017-08-11T12:37:11.120Z,2.5
2017-08-11T12:38:13.561Z,2.4
2017-08-11T12:39:15.991Z,2.4
2017-08-11T12:40:18.754Z,2.5
2017-08-11T12:41:21.520Z,2.4
2017-08-11T12:42:23.956Z,2.4
2017-08-11T12:43:27.058Z,2.5
2017-08-11T12:44:29.474Z,2.5
2017-08-11T12:45:31.895Z,2.4
2017-08-11T12:46:34.658Z,2.4
2017-08-11T12:47:37.438Z,2.4
2017-08-11T12:48:40.243Z,2.4
2017-08-11T12:49:43.329Z,2.4
2017-08-11T12:50:45.808Z,2.4
2017-08-11T12:51:49.350Z,2.5
2017-08-11T12:52:51.806Z,2.4
2017-08-11T12:53:54.230Z,2.5
2017-08-11T12:54:57.027Z,2.4
2017-08-11T12:55:59.522Z,2.5
2017-08-11T12:57:02.668Z,2.5
2017-08-11T12:58:05.080Z,2.5
2017-08-11T12:59:07.999Z,2.5
2017-08-11T13:00:10.619Z,2.5
2017-08-11T13:01:13.376Z,2.5
2017-08-11T13:02:15.794Z,2.4
2017-08-11T13:03:18.219Z,2.4
2017-08-11T13:04:22.024Z,2.4
2017-08-11T13:05:24.991Z,2.4
2017-08-11T13:06:27.793Z,2.5
2017-08-11T13:07:30.216Z,2.5
2017-08-11T13:08:32.966Z,2.4
2017-08-11T13:09:35.546Z,2.5
2017-08-11T13:10:37.976Z,2.5
2017-08-11T13:11:40.396Z,2.5
2017-08-11T13:12:43.174Z,2.5
2017-08-11T13:13:45.762Z,2.4
2017-08-11T13:14:48.578Z,2.5
2017-08-11T13:15:51.065Z,2.5
2017-08-11T13:16:53.827Z,2.5
2017-08-11T13:17:56.584Z,2.5
2017-08-11T13:18:59.009Z,2.5
2017-08-11T13:20:01.644Z,2.5
2017-08-11T13:21:04.493Z,2.5
2017-08-11T13:22:06.920Z,2.5
2017-08-11T13:23:09.342Z,2.4
2017-08-11T13:24:11.889Z,2.4
2017-08-11T13:25:14.313Z,2.4
2017-08-11T13:26:16.742Z,2.4
2017-08-11T13:27:19.167Z,2.5
2017-08-11T13:28:21.690Z,2.4
2017-08-11T13:29:24.157Z,2.4
2017-08-11T13:30:26.919Z,2.4
2017-08-11T13:31:29.679Z,2.4
2017-08-11T13:32:32.778Z,2.4
2017-08-11T13:33:35.768Z,2.4
2017-08-11T13:34:38.744Z,2.4
2017-08-11T13:35:42.032Z,2.4
2017-08-11T13:36:44.460Z,2.4
2017-08-11T13:37:46.878Z,2.5
2017-08-11T13:38:49.308Z,2.4
2017-08-11T13:39:51.847Z,2.4
2017-08-11T13:40:54.277Z,2.4
2017-08-11T13:41:56.694Z,2.4
2017-08-11T13:42:59.452Z,2.4
2017-08-11T13:44:01.887Z,2.4
2017-08-11T13:45:04.782Z,2.4
2017-08-11T13:46:07.301Z,2.4
2017-08-11T13:47:10.069Z,2.4
2017-08-11T13:48:12.493Z,2.4
2017-08-11T13:49:15.372Z,2.4
2017-08-11T13:50:18.031Z,2.4
2017-08-11T13:51:20.503Z,2.4
2017-08-11T13:52:22.931Z,2.4
2017-08-11T13:53:25.689Z,2.4
2017-08-11T13:54:28.099Z,2.4
2017-08-11T13:55:30.889Z,2.4
2017-08-11T13:56:33.557Z,2.4
2017-08-11T13:57:36.467Z,2.4
2017-08-11T13:58:39.241Z,2.4
2017-08-11T13:59:41.660Z,2.3
2017-08-11T14:00:44.081Z,2.3
2017-08-11T14:01:46.997Z,2.3
2017-08-11T14:02:49.967Z,2.3
2017-08-11T14:03:52.386Z,2.4
2017-08-11T14:04:54.808Z,2.4
2017-08-11T14:05:57.230Z,2.4
2017-08-11T14:07:00.121Z,2.4
2017-08-11T14:08:03.454Z,2.4
2017-08-11T14:09:05.976Z,2.4
2017-08-11T14:10:08.961Z,2.4
2017-08-11T14:11:11.714Z,2.4
2017-08-11T14:12:14.142Z,2.4
2017-08-11T14:13:16.668Z,2.3
2017-08-11T14:14:19.512Z,2.4
2017-08-11T14:15:22.311Z,2.4
2017-08-11T14:16:24.737Z,2.4
2017-08-11T14:17:27.837Z,2.4
2017-08-11T14:18:30.947Z,2.5
2017-08-11T14:19:34.051Z,2.4
2017-08-11T14:20:37.147Z,2.4
2017-08-11T14:21:40.061Z,2.4
2017-08-11T14:22:42.871Z,2.4
2017-08-11T14:23:45.289Z,2.4